Here is the Quick Look data you requested

The Data originates at the National Weather Service, and is made available here by the UAlbany Department of Atmospheric and Environmental Sciences

Surface Observations

KNAK 250954Z AUTO 00000KT 4SM BR CLR 19/19 A2985 RMK AO2 SLP110 T01940189=
KILG 250951Z 36004KT 10SM CLR 17/16 A2986 RMK AO2 SLP110 T01670156=
KDCA 250952Z 21003KT 10SM BKN250 21/18 A2985 RMK AO2 SLP107 T02110183=
KIAD 250952Z 00000KT 10SM BKN250 17/16 A2986 RMK AO2 SLP108 T01720161=
KDAA 250955Z AUTO 00000KT 2 1/2SM BR CLR 17/17 A2983 RMK AO2 SLP104 T01720165 $=
KEZF 250955Z AUTO 00000KT 10SM CLR 18/18 A2985 RMK AO2 T01750175=
KHEF 250956Z AUTO 00000KT 1/4SM CLR 16/ A2987 RMK AO2 SLP119 T0156=
KJYO 250955Z AUTO 00000KT 10SM CLR 17/17 A2988 RMK AO2=
KRIC 250954Z 00000KT 7SM BKN300 18/17 A2986 RMK AO2 SLP114 T01780167 $=
KOKV 250955Z AUTO 00000KT 3SM BR CLR 16/15 A2986 RMK AO2=
KMRB 250953Z AUTO 32003KT 4SM BR CLR 16/15 A2985 RMK AO2 SLP105 T01560150=
KCHO 250953Z 00000KT 5SM BR CLR 18/16 A2986 RMK AO2 SLP104 T01780161=
KNYG 250956Z AUTO 29005KT 5SM BR CLR 19/18 A2986 RMK AO2 SLP113 T01940178 $=
KWAL 250954Z AUTO 00000KT M1/4SM FG VV001 18/18 A2986 RMK AO2 SLP107 T01830183=
KCXY 250956Z AUTO 23003KT 10SM CLR 18/14 A2986 RMK AO2 SLP109 T01780144=
KADW 250955Z AUTO 00000KT 10SM CLR 18/17 A2983 RMK AO2 SLP106 T01790169 $=
KBWI 250954Z 00000KT 10SM BKN250 19/18 A2985 RMK AO2 SLP105 T01890178=
KDMH 250953Z AUTO 22/17 A2985 RMK AO1 SLP109 T02170172=
KFME 250949Z AUTO 00000KT 5SM CLR 15/15 A2988 RMK AO1=
KHGR 250953Z AUTO 10005KT 8SM CLR 18/16 A2986 RMK AO2 SLP115 T01780161=
KMTN 250949Z AUTO 00000KT 10SM CLR 18/17 A2986 RMK AO2=
KNHK 250952Z AUTO 23004KT 4SM BR SCT002 19/17 A2985 RMK AO2 VIS 1/2 RY24 SLP109
 T01890172 $=
KOXB 250953Z AUTO 12003KT 1/4SM FG VV002 19/18 A2986 RMK AO2 SLP111 T01890178=
KSBY 250954Z AUTO 00000KT 1/4SM FG VV002 16/16 A2985 RMK AO2 SLP111 T01560156=